sensor_id;sensor_type;location;lat;lon;timestamp;temperature;humidity
11609;DHT22;5860;52.018;8.536;2024-02-21T00:02:21;8.40;99.90
11609;DHT22;5860;52.018;8.536;2024-02-21T00:04:48;8.30;99.90
11609;DHT22;5860;52.018;8.536;2024-02-21T00:07:15;8.40;99.90
11609;DHT22;5860;52.018;8.536;2024-02-21T00:09:42;8.40;99.90
11609;DHT22;5860;52.018;8.536;2024-02-21T00:12:09;8.40;99.90
11609;DHT22;5860;52.018;8.536;2024-02-21T00:14:36;8.40;99.90
11609;DHT22;5860;52.018;8.536;2024-02-21T00:17:03;8.40;99.90
11609;DHT22;5860;52.018;8.536;2024-02-21T00:19:30;8.40;99.90
11609;DHT22;5860;52.018;8.536;2024-02-21T00:21:57;8.40;99.90
11609;DHT22;5860;52.018;8.536;2024-02-21T00:24:24;8.40;99.90
11609;DHT22;5860;52.018;8.536;2024-02-21T00:26:50;8.40;99.90
11609;DHT22;5860;52.018;8.536;2024-02-21T00:29:17;8.40;99.90
11609;DHT22;5860;52.018;8.536;2024-02-21T00:31:44;8.40;99.90
11609;DHT22;5860;52.018;8.536;2024-02-21T00:34:11;8.40;99.90
11609;DHT22;5860;52.018;8.536;2024-02-21T00:36:39;8.40;99.90
11609;DHT22;5860;52.018;8.536;2024-02-21T00:39:06;8.50;99.90
11609;DHT22;5860;52.018;8.536;2024-02-21T00:41:33;8.40;99.90
11609;DHT22;5860;52.018;8.536;2024-02-21T00:44:00;8.40;99.90
11609;DHT22;5860;52.018;8.536;2024-02-21T00:46:27;8.40;99.90
11609;DHT22;5860;52.018;8.536;2024-02-21T00:48:54;8.40;99.90
11609;DHT22;5860;52.018;8.536;2024-02-21T00:51:21;8.40;99.90
11609;DHT22;5860;52.018;8.536;2024-02-21T00:53:47;8.40;99.90
11609;DHT22;5860;52.018;8.536;2024-02-21T00:56:14;8.40;99.90
11609;DHT22;5860;52.018;8.536;2024-02-21T00:58:42;8.50;99.90
11609;DHT22;5860;52.018;8.536;2024-02-21T01:01:09;8.40;99.90
11609;DHT22;5860;52.018;8.536;2024-02-21T01:03:39;8.40;99.90
11609;DHT22;5860;52.018;8.536;2024-02-21T01:06:06;8.50;99.90
11609;DHT22;5860;52.018;8.536;2024-02-21T01:08:33;8.40;99.90
11609;DHT22;5860;52.018;8.536;2024-02-21T01:11:00;8.40;99.90
11609;DHT22;5860;52.018;8.536;2024-02-21T01:13:27;8.50;99.90
11609;DHT22;5860;52.018;8.536;2024-02-21T01:15:54;8.40;99.90
11609;DHT22;5860;52.018;8.536;2024-02-21T01:18:21;8.50;99.90
11609;DHT22;5860;52.018;8.536;2024-02-21T01:20:48;8.50;99.90
11609;DHT22;5860;52.018;8.536;2024-02-21T01:23:15;8.40;99.90
11609;DHT22;5860;52.018;8.536;2024-02-21T01:25:41;8.40;99.90
11609;DHT22;5860;52.018;8.536;2024-02-21T01:28:09;8.50;99.90
11609;DHT22;5860;52.018;8.536;2024-02-21T01:30:35;8.50;99.90
11609;DHT22;5860;52.018;8.536;2024-02-21T01:33:03;8.50;99.90
11609;DHT22;5860;52.018;8.536;2024-02-21T01:35:30;8.50;99.90
11609;DHT22;5860;52.018;8.536;2024-02-21T01:37:57;8.50;99.90
11609;DHT22;5860;52.018;8.536;2024-02-21T01:40:24;8.50;99.90
11609;DHT22;5860;52.018;8.536;2024-02-21T01:42:50;8.50;99.90
11609;DHT22;5860;52.018;8.536;2024-02-21T01:45:20;8.50;99.90
11609;DHT22;5860;52.018;8.536;2024-02-21T01:47:48;8.50;99.90
11609;DHT22;5860;52.018;8.536;2024-02-21T01:50:17;8.50;99.90
11609;DHT22;5860;52.018;8.536;2024-02-21T01:52:46;8.40;99.90
11609;DHT22;5860;52.018;8.536;2024-02-21T01:55:13;8.40;99.90
11609;DHT22;5860;52.018;8.536;2024-02-21T01:57:42;8.40;99.90
11609;DHT22;5860;52.018;8.536;2024-02-21T02:00:13;8.50;99.90
11609;DHT22;5860;52.018;8.536;2024-02-21T02:02:40;8.50;99.90
11609;DHT22;5860;52.018;8.536;2024-02-21T02:05:08;8.50;99.90
11609;DHT22;5860;52.018;8.536;2024-02-21T02:07:36;8.50;99.90
11609;DHT22;5860;52.018;8.536;2024-02-21T02:10:03;8.40;99.90
11609;DHT22;5860;52.018;8.536;2024-02-21T02:12:30;8.50;99.90
11609;DHT22;5860;52.018;8.536;2024-02-21T02:15:00;8.40;99.90
11609;DHT22;5860;52.018;8.536;2024-02-21T02:17:27;8.40;99.90
11609;DHT22;5860;52.018;8.536;2024-02-21T02:19:54;8.50;99.90
11609;DHT22;5860;52.018;8.536;2024-02-21T02:22:23;8.50;99.90
11609;DHT22;5860;52.018;8.536;2024-02-21T02:24:52;8.50;99.90
11609;DHT22;5860;52.018;8.536;2024-02-21T02:27:19;8.50;99.90
11609;DHT22;5860;52.018;8.536;2024-02-21T02:29:46;8.50;99.90
11609;DHT22;5860;52.018;8.536;2024-02-21T02:32:13;8.50;99.90
11609;DHT22;5860;52.018;8.536;2024-02-21T02:34:40;8.50;99.90
11609;DHT22;5860;52.018;8.536;2024-02-21T02:37:07;8.50;99.90
11609;DHT22;5860;52.018;8.536;2024-02-21T02:39:34;8.50;99.90
11609;DHT22;5860;52.018;8.536;2024-02-21T02:42:02;8.40;99.90
11609;DHT22;5860;52.018;8.536;2024-02-21T02:44:28;8.50;99.90
11609;DHT22;5860;52.018;8.536;2024-02-21T02:46:55;8.50;99.90
11609;DHT22;5860;52.018;8.536;2024-02-21T02:49:22;8.50;99.90
11609;DHT22;5860;52.018;8.536;2024-02-21T02:51:49;8.50;99.90
11609;DHT22;5860;52.018;8.536;2024-02-21T02:54:16;8.50;99.90
11609;DHT22;5860;52.018;8.536;2024-02-21T02:56:42;8.50;99.90
11609;DHT22;5860;52.018;8.536;2024-02-21T02:59:10;8.50;99.90
11609;DHT22;5860;52.018;8.536;2024-02-21T03:01:37;8.50;99.90
11609;DHT22;5860;52.018;8.536;2024-02-21T03:04:04;8.50;99.90
11609;DHT22;5860;52.018;8.536;2024-02-21T03:06:31;8.50;99.90
11609;DHT22;5860;52.018;8.536;2024-02-21T03:08:58;8.50;99.90
11609;DHT22;5860;52.018;8.536;2024-02-21T03:11:27;8.50;99.90
11609;DHT22;5860;52.018;8.536;2024-02-21T03:13:56;8.50;99.90
11609;DHT22;5860;52.018;8.536;2024-02-21T03:16:23;8.50;99.90
11609;DHT22;5860;52.018;8.536;2024-02-21T03:18:50;8.50;99.90
11609;DHT22;5860;52.018;8.536;2024-02-21T03:21:17;8.50;99.90
11609;DHT22;5860;52.018;8.536;2024-02-21T03:23:44;8.50;99.90
11609;DHT22;5860;52.018;8.536;2024-02-21T03:26:11;8.50;99.90
11609;DHT22;5860;52.018;8.536;2024-02-21T03:28:38;8.50;99.90
11609;DHT22;5860;52.018;8.536;2024-02-21T03:31:06;8.50;99.90
11609;DHT22;5860;52.018;8.536;2024-02-21T03:33:33;8.60;99.90
11609;DHT22;5860;52.018;8.536;2024-02-21T03:36:00;8.50;99.90
11609;DHT22;5860;52.018;8.536;2024-02-21T03:38:27;8.50;99.90
11609;DHT22;5860;52.018;8.536;2024-02-21T03:40:54;8.50;99.90
11609;DHT22;5860;52.018;8.536;2024-02-21T03:43:21;8.50;99.90
11609;DHT22;5860;52.018;8.536;2024-02-21T03:45:51;8.60;99.90
11609;DHT22;5860;52.018;8.536;2024-02-21T03:48:18;8.60;99.90
11609;DHT22;5860;52.018;8.536;2024-02-21T03:50:45;8.60;99.90
11609;DHT22;5860;52.018;8.536;2024-02-21T03:53:11;8.50;99.90
11609;DHT22;5860;52.018;8.536;2024-02-21T03:55:39;8.50;99.90
11609;DHT22;5860;52.018;8.536;2024-02-21T03:58:05;8.60;99.90
11609;DHT22;5860;52.018;8.536;2024-02-21T04:00:32;8.60;99.90
11609;DHT22;5860;52.018;8.536;2024-02-21T04:02:59;8.60;99.90
11609;DHT22;5860;52.018;8.536;2024-02-21T04:05:26;8.60;99.90
11609;DHT22;5860;52.018;8.536;2024-02-21T04:07:53;8.60;99.90
11609;DHT22;5860;52.018;8.536;2024-02-21T04:10:20;8.60;99.90
11609;DHT22;5860;52.018;8.536;2024-02-21T04:12:47;8.60;99.90
11609;DHT22;5860;52.018;8.536;2024-02-21T04:15:17;8.50;99.90
11609;DHT22;5860;52.018;8.536;2024-02-21T04:17:44;8.50;99.90
11609;DHT22;5860;52.018;8.536;2024-02-21T04:20:15;8.60;99.90
11609;DHT22;5860;52.018;8.536;2024-02-21T04:22:45;8.60;99.90
11609;DHT22;5860;52.018;8.536;2024-02-21T04:25:13;8.50;99.90
11609;DHT22;5860;52.018;8.536;2024-02-21T04:27:39;8.50;99.90
11609;DHT22;5860;52.018;8.536;2024-02-21T04:30:07;8.60;99.90
11609;DHT22;5860;52.018;8.536;2024-02-21T04:32:34;8.50;99.90
11609;DHT22;5860;52.018;8.536;2024-02-21T04:35:01;8.50;99.90
11609;DHT22;5860;52.018;8.536;2024-02-21T04:37:28;8.50;99.90
11609;DHT22;5860;52.018;8.536;2024-02-21T04:39:55;8.50;99.90
11609;DHT22;5860;52.018;8.536;2024-02-21T04:42:22;8.50;99.90
11609;DHT22;5860;52.018;8.536;2024-02-21T04:44:48;8.50;99.90
11609;DHT22;5860;52.018;8.536;2024-02-21T04:47:15;8.50;99.90
11609;DHT22;5860;52.018;8.536;2024-02-21T04:49:42;8.50;99.90
11609;DHT22;5860;52.018;8.536;2024-02-21T04:52:09;8.50;99.90
11609;DHT22;5860;52.018;8.536;2024-02-21T04:54:36;8.50;99.90
11609;DHT22;5860;52.018;8.536;2024-02-21T04:57:03;8.50;99.90
11609;DHT22;5860;52.018;8.536;2024-02-21T04:59:30;8.50;99.90
11609;DHT22;5860;52.018;8.536;2024-02-21T05:01:57;8.50;99.90
11609;DHT22;5860;52.018;8.536;2024-02-21T05:04:25;8.50;99.90
11609;DHT22;5860;52.018;8.536;2024-02-21T05:06:52;8.50;99.90
11609;DHT22;5860;52.018;8.536;2024-02-21T05:09:19;8.50;99.90
11609;DHT22;5860;52.018;8.536;2024-02-21T05:11:46;8.50;99.90
11609;DHT22;5860;52.018;8.536;2024-02-21T05:14:12;8.50;99.90
11609;DHT22;5860;52.018;8.536;2024-02-21T05:16:39;8.50;99.90
11609;DHT22;5860;52.018;8.536;2024-02-21T05:19:07;8.40;99.90
11609;DHT22;5860;52.018;8.536;2024-02-21T05:21:33;8.40;99.90
11609;DHT22;5860;52.018;8.536;2024-02-21T05:24:00;8.40;99.90
11609;DHT22;5860;52.018;8.536;2024-02-21T05:26:28;8.40;99.90
11609;DHT22;5860;52.018;8.536;2024-02-21T05:28:56;8.30;99.90
11609;DHT22;5860;52.018;8.536;2024-02-21T05:31:22;8.30;99.90
11609;DHT22;5860;52.018;8.536;2024-02-21T05:33:49;8.20;99.90
11609;DHT22;5860;52.018;8.536;2024-02-21T05:36:16;8.20;99.90
11609;DHT22;5860;52.018;8.536;2024-02-21T05:38:43;8.20;99.90
11609;DHT22;5860;52.018;8.536;2024-02-21T05:41:10;8.20;99.90
11609;DHT22;5860;52.018;8.536;2024-02-21T05:43:38;8.20;99.90
11609;DHT22;5860;52.018;8.536;2024-02-21T05:46:05;8.20;99.90
11609;DHT22;5860;52.018;8.536;2024-02-21T05:48:32;8.20;99.90
11609;DHT22;5860;52.018;8.536;2024-02-21T05:51:05;8.20;99.90
11609;DHT22;5860;52.018;8.536;2024-02-21T05:53:31;8.20;99.90
11609;DHT22;5860;52.018;8.536;2024-02-21T05:55:58;8.20;99.90
11609;DHT22;5860;52.018;8.536;2024-02-21T05:58:26;8.20;99.90
11609;DHT22;5860;52.018;8.536;2024-02-21T06:00:53;8.20;99.90
11609;DHT22;5860;52.018;8.536;2024-02-21T06:03:20;8.20;99.90
11609;DHT22;5860;52.018;8.536;2024-02-21T06:05:47;8.20;99.90
11609;DHT22;5860;52.018;8.536;2024-02-21T06:08:14;8.20;99.90
11609;DHT22;5860;52.018;8.536;2024-02-21T06:10:41;8.30;99.90
11609;DHT22;5860;52.018;8.536;2024-02-21T06:13:08;8.20;99.90
11609;DHT22;5860;52.018;8.536;2024-02-21T06:15:36;8.20;99.90
11609;DHT22;5860;52.018;8.536;2024-02-21T06:18:03;8.30;99.90
11609;DHT22;5860;52.018;8.536;2024-02-21T06:20:30;8.30;99.90
11609;DHT22;5860;52.018;8.536;2024-02-21T06:22:57;8.30;99.90
11609;DHT22;5860;52.018;8.536;2024-02-21T06:25:24;8.30;99.90
11609;DHT22;5860;52.018;8.536;2024-02-21T06:27:51;8.30;99.90
11609;DHT22;5860;52.018;8.536;2024-02-21T06:30:18;8.30;99.90
11609;DHT22;5860;52.018;8.536;2024-02-21T06:32:44;8.30;99.90
11609;DHT22;5860;52.018;8.536;2024-02-21T06:35:12;8.30;99.90
11609;DHT22;5860;52.018;8.536;2024-02-21T06:37:39;8.30;99.90
11609;DHT22;5860;52.018;8.536;2024-02-21T06:40:06;8.30;99.90
11609;DHT22;5860;52.018;8.536;2024-02-21T06:42:33;8.40;99.90
11609;DHT22;5860;52.018;8.536;2024-02-21T06:45:00;8.30;99.90
11609;DHT22;5860;52.018;8.536;2024-02-21T06:47:27;8.40;99.90
11609;DHT22;5860;52.018;8.536;2024-02-21T06:49:54;8.40;99.90
11609;DHT22;5860;52.018;8.536;2024-02-21T06:52:21;8.40;99.90
11609;DHT22;5860;52.018;8.536;2024-02-21T06:54:48;8.40;99.90
11609;DHT22;5860;52.018;8.536;2024-02-21T06:57:15;8.40;99.90
11609;DHT22;5860;52.018;8.536;2024-02-21T06:59:42;8.40;99.90
11609;DHT22;5860;52.018;8.536;2024-02-21T07:02:09;8.50;99.90
11609;DHT22;5860;52.018;8.536;2024-02-21T07:04:36;8.50;99.90
11609;DHT22;5860;52.018;8.536;2024-02-21T07:07:03;8.50;99.90
11609;DHT22;5860;52.018;8.536;2024-02-21T07:09:30;8.50;99.90
11609;DHT22;5860;52.018;8.536;2024-02-21T07:11:59;8.60;99.90
11609;DHT22;5860;52.018;8.536;2024-02-21T07:14:27;8.60;99.90
11609;DHT22;5860;52.018;8.536;2024-02-21T07:16:54;8.60;99.90
11609;DHT22;5860;52.018;8.536;2024-02-21T07:19:21;8.60;99.90
11609;DHT22;5860;52.018;8.536;2024-02-21T07:21:48;8.60;99.90
11609;DHT22;5860;52.018;8.536;2024-02-21T07:24:15;8.70;99.90
11609;DHT22;5860;52.018;8.536;2024-02-21T07:26:42;8.60;95.30
11609;DHT22;5860;52.018;8.536;2024-02-21T07:29:10;8.70;58.70
11609;DHT22;5860;52.018;8.536;2024-02-21T07:31:43;8.60;30.30
11609;DHT22;5860;52.018;8.536;2024-02-21T07:34:10;8.70;21.20
11609;DHT22;5860;52.018;8.536;2024-02-21T07:36:37;8.70;1.00
11609;DHT22;5860;52.018;8.536;2024-02-21T07:39:05;8.80;1.00
11609;DHT22;5860;52.018;8.536;2024-02-21T07:41:32;8.80;1.00
11609;DHT22;5860;52.018;8.536;2024-02-21T07:44:01;8.80;1.00
11609;DHT22;5860;52.018;8.536;2024-02-21T07:46:28;8.80;1.00
11609;DHT22;5860;52.018;8.536;2024-02-21T07:48:54;8.80;1.00
11609;DHT22;5860;52.018;8.536;2024-02-21T07:51:21;8.80;1.00
11609;DHT22;5860;52.018;8.536;2024-02-21T07:53:48;8.90;1.00
11609;DHT22;5860;52.018;8.536;2024-02-21T07:56:15;8.90;1.00
11609;DHT22;5860;52.018;8.536;2024-02-21T07:58:42;9.00;1.00
11609;DHT22;5860;52.018;8.536;2024-02-21T08:01:10;9.00;1.00
11609;DHT22;5860;52.018;8.536;2024-02-21T08:03:37;9.00;1.00
11609;DHT22;5860;52.018;8.536;2024-02-21T08:06:04;9.00;1.00
11609;DHT22;5860;52.018;8.536;2024-02-21T08:08:31;9.00;99.90
11609;DHT22;5860;52.018;8.536;2024-02-21T08:10:57;9.10;99.90
11609;DHT22;5860;52.018;8.536;2024-02-21T08:13:24;9.10;99.90
11609;DHT22;5860;52.018;8.536;2024-02-21T08:15:52;9.10;79.00
11609;DHT22;5860;52.018;8.536;2024-02-21T08:18:19;9.10;99.90
11609;DHT22;5860;52.018;8.536;2024-02-21T08:20:46;9.20;1.00
11609;DHT22;5860;52.018;8.536;2024-02-21T08:23:12;9.10;1.00
11609;DHT22;5860;52.018;8.536;2024-02-21T08:25:39;9.20;1.00
11609;DHT22;5860;52.018;8.536;2024-02-21T08:28:06;9.10;99.90
11609;DHT22;5860;52.018;8.536;2024-02-21T08:30:34;9.20;1.00
11609;DHT22;5860;52.018;8.536;2024-02-21T08:33:01;9.30;1.00
11609;DHT22;5860;52.018;8.536;2024-02-21T08:35:28;9.40;1.00
11609;DHT22;5860;52.018;8.536;2024-02-21T08:37:55;9.60;1.00
11609;DHT22;5860;52.018;8.536;2024-02-21T08:40:22;9.70;1.00
11609;DHT22;5860;52.018;8.536;2024-02-21T08:42:49;9.70;99.90
11609;DHT22;5860;52.018;8.536;2024-02-21T08:45:16;9.70;99.90
11609;DHT22;5860;52.018;8.536;2024-02-21T08:47:43;9.70;99.90
11609;DHT22;5860;52.018;8.536;2024-02-21T08:50:11;9.70;99.90
11609;DHT22;5860;52.018;8.536;2024-02-21T08:52:53;9.90;9.30
11609;DHT22;5860;52.018;8.536;2024-02-21T08:55:23;9.80;1.00
11609;DHT22;5860;52.018;8.536;2024-02-21T08:57:51;9.80;1.00
11609;DHT22;5860;52.018;8.536;2024-02-21T09:00:18;9.90;99.90
11609;DHT22;5860;52.018;8.536;2024-02-21T09:02:47;10.00;99.90
11609;DHT22;5860;52.018;8.536;2024-02-21T09:05:14;10.00;99.90
11609;DHT22;5860;52.018;8.536;2024-02-21T09:07:42;10.10;1.00
11609;DHT22;5860;52.018;8.536;2024-02-21T09:10:09;10.10;99.90
11609;DHT22;5860;52.018;8.536;2024-02-21T09:12:36;10.00;99.90
11609;DHT22;5860;52.018;8.536;2024-02-21T09:15:03;9.90;99.90
11609;DHT22;5860;52.018;8.536;2024-02-21T09:17:30;9.90;99.90
11609;DHT22;5860;52.018;8.536;2024-02-21T09:19:58;10.10;21.70
11609;DHT22;5860;52.018;8.536;2024-02-21T09:22:36;10.20;1.00
11609;DHT22;5860;52.018;8.536;2024-02-21T09:25:05;10.10;1.00
11609;DHT22;5860;52.018;8.536;2024-02-21T09:27:32;10.20;99.90
11609;DHT22;5860;52.018;8.536;2024-02-21T09:29:59;10.40;96.10
11609;DHT22;5860;52.018;8.536;2024-02-21T09:32:27;10.30;1.00
11609;DHT22;5860;52.018;8.536;2024-02-21T09:34:54;10.30;1.00
11609;DHT22;5860;52.018;8.536;2024-02-21T09:37:25;10.30;99.90
11609;DHT22;5860;52.018;8.536;2024-02-21T09:39:52;10.30;1.00
11609;DHT22;5860;52.018;8.536;2024-02-21T09:42:21;10.40;1.00
11609;DHT22;5860;52.018;8.536;2024-02-21T09:44:50;10.30;1.00
11609;DHT22;5860;52.018;8.536;2024-02-21T09:47:22;10.30;99.90
11609;DHT22;5860;52.018;8.536;2024-02-21T09:49:51;10.20;99.90
11609;DHT22;5860;52.018;8.536;2024-02-21T09:52:19;10.40;99.90
11609;DHT22;5860;52.018;8.536;2024-02-21T09:54:47;10.50;99.90
11609;DHT22;5860;52.018;8.536;2024-02-21T09:57:15;10.60;12.40
11609;DHT22;5860;52.018;8.536;2024-02-21T09:59:43;10.60;1.00
11609;DHT22;5860;52.018;8.536;2024-02-21T10:02:12;10.60;1.00
11609;DHT22;5860;52.018;8.536;2024-02-21T10:04:42;10.60;1.00
11609;DHT22;5860;52.018;8.536;2024-02-21T10:07:09;10.60;1.00
11609;DHT22;5860;52.018;8.536;2024-02-21T10:09:36;10.40;1.00
11609;DHT22;5860;52.018;8.536;2024-02-21T10:12:12;10.50;1.00
11609;DHT22;5860;52.018;8.536;2024-02-21T10:14:40;10.60;99.90
11609;DHT22;5860;52.018;8.536;2024-02-21T10:17:08;10.80;99.90
11609;DHT22;5860;52.018;8.536;2024-02-21T10:19:38;10.70;99.90
11609;DHT22;5860;52.018;8.536;2024-02-21T10:22:08;10.70;1.00
11609;DHT22;5860;52.018;8.536;2024-02-21T10:24:36;10.80;1.00
11609;DHT22;5860;52.018;8.536;2024-02-21T10:27:10;10.60;1.00
11609;DHT22;5860;52.018;8.536;2024-02-21T10:29:39;10.70;1.00
11609;DHT22;5860;52.018;8.536;2024-02-21T10:34:39;10.50;1.00
11609;DHT22;5860;52.018;8.536;2024-02-21T10:37:08;10.60;1.00
11609;DHT22;5860;52.018;8.536;2024-02-21T10:39:38;10.50;1.00
11609;DHT22;5860;52.018;8.536;2024-02-21T10:42:05;10.60;1.00
11609;DHT22;5860;52.018;8.536;2024-02-21T10:44:36;10.50;1.00
11609;DHT22;5860;52.018;8.536;2024-02-21T10:47:11;10.50;1.00
11609;DHT22;5860;52.018;8.536;2024-02-21T10:49:41;10.60;6.20
11609;DHT22;5860;52.018;8.536;2024-02-21T10:54:49;10.50;99.90
11609;DHT22;5860;52.018;8.536;2024-02-21T10:57:20;10.40;99.90
11609;DHT22;5860;52.018;8.536;2024-02-21T10:59:49;10.60;1.00
11609;DHT22;5860;52.018;8.536;2024-02-21T11:02:16;10.50;99.90
11609;DHT22;5860;52.018;8.536;2024-02-21T11:04:45;10.50;1.00
11609;DHT22;5860;52.018;8.536;2024-02-21T11:07:13;10.40;1.00
11609;DHT22;5860;52.018;8.536;2024-02-21T11:09:50;10.40;1.00
11609;DHT22;5860;52.018;8.536;2024-02-21T11:12:23;10.50;1.00
11609;DHT22;5860;52.018;8.536;2024-02-21T11:14:50;10.50;1.00
11609;DHT22;5860;52.018;8.536;2024-02-21T11:17:18;10.40;1.00
11609;DHT22;5860;52.018;8.536;2024-02-21T11:19:46;10.50;99.90
11609;DHT22;5860;52.018;8.536;2024-02-21T11:22:20;10.50;99.90
11609;DHT22;5860;52.018;8.536;2024-02-21T11:24:50;10.60;99.90
11609;DHT22;5860;52.018;8.536;2024-02-21T11:27:20;10.60;99.90
11609;DHT22;5860;52.018;8.536;2024-02-21T11:29:49;10.80;99.90
11609;DHT22;5860;52.018;8.536;2024-02-21T11:32:20;10.70;99.90
11609;DHT22;5860;52.018;8.536;2024-02-21T11:34:57;10.70;1.00
11609;DHT22;5860;52.018;8.536;2024-02-21T11:37:30;10.50;23.90
11609;DHT22;5860;52.018;8.536;2024-02-21T11:40:00;10.60;99.90
11609;DHT22;5860;52.018;8.536;2024-02-21T11:42:28;10.60;42.70
11609;DHT22;5860;52.018;8.536;2024-02-21T11:44:56;10.60;14.40
11609;DHT22;5860;52.018;8.536;2024-02-21T11:47:24;10.60;27.90
11609;DHT22;5860;52.018;8.536;2024-02-21T11:49:52;10.70;22.20
11609;DHT22;5860;52.018;8.536;2024-02-21T11:52:22;10.70;33.30
11609;DHT22;5860;52.018;8.536;2024-02-21T11:54:53;10.60;99.90
11609;DHT22;5860;52.018;8.536;2024-02-21T11:57:21;10.60;99.90
11609;DHT22;5860;52.018;8.536;2024-02-21T11:59:48;10.60;99.90
11609;DHT22;5860;52.018;8.536;2024-02-21T12:02:19;10.40;99.90
11609;DHT22;5860;52.018;8.536;2024-02-21T12:04:46;10.40;99.90
11609;DHT22;5860;52.018;8.536;2024-02-21T12:07:16;10.30;1.00
11609;DHT22;5860;52.018;8.536;2024-02-21T12:09:44;10.50;1.00
11609;DHT22;5860;52.018;8.536;2024-02-21T12:12:11;10.50;1.00
11609;DHT22;5860;52.018;8.536;2024-02-21T12:14:38;10.40;1.00
11609;DHT22;5860;52.018;8.536;2024-02-21T12:17:05;10.30;99.90
11609;DHT22;5860;52.018;8.536;2024-02-21T12:19:34;10.40;99.90
11609;DHT22;5860;52.018;8.536;2024-02-21T12:22:01;10.60;99.90
11609;DHT22;5860;52.018;8.536;2024-02-21T12:24:33;10.60;99.90
11609;DHT22;5860;52.018;8.536;2024-02-21T12:27:00;10.60;27.00
11609;DHT22;5860;52.018;8.536;2024-02-21T12:29:30;10.60;1.00
11609;DHT22;5860;52.018;8.536;2024-02-21T12:31:57;10.50;1.00
11609;DHT22;5860;52.018;8.536;2024-02-21T12:34:25;10.50;99.90
11609;DHT22;5860;52.018;8.536;2024-02-21T12:37:10;10.40;99.90
11609;DHT22;5860;52.018;8.536;2024-02-21T12:39:40;10.50;99.90
11609;DHT22;5860;52.018;8.536;2024-02-21T12:42:07;10.50;99.90
11609;DHT22;5860;52.018;8.536;2024-02-21T12:44:35;10.50;99.90
11609;DHT22;5860;52.018;8.536;2024-02-21T12:47:02;10.50;99.90
11609;DHT22;5860;52.018;8.536;2024-02-21T12:49:30;10.60;1.00
11609;DHT22;5860;52.018;8.536;2024-02-21T12:51:57;10.60;1.00
11609;DHT22;5860;52.018;8.536;2024-02-21T12:54:24;10.60;1.00
11609;DHT22;5860;52.018;8.536;2024-02-21T12:56:51;10.60;1.00
11609;DHT22;5860;52.018;8.536;2024-02-21T12:59:18;10.60;1.00
11609;DHT22;5860;52.018;8.536;2024-02-21T13:01:45;10.50;1.00
11609;DHT22;5860;52.018;8.536;2024-02-21T13:04:12;10.50;99.90
11609;DHT22;5860;52.018;8.536;2024-02-21T13:06:39;10.40;99.90
11609;DHT22;5860;52.018;8.536;2024-02-21T13:09:06;10.10;38.60
11609;DHT22;5860;52.018;8.536;2024-02-21T13:11:38;10.30;1.00
11609;DHT22;5860;52.018;8.536;2024-02-21T13:14:05;10.20;99.90
11609;DHT22;5860;52.018;8.536;2024-02-21T13:16:32;10.30;99.90
11609;DHT22;5860;52.018;8.536;2024-02-21T13:19:07;10.20;1.00
11609;DHT22;5860;52.018;8.536;2024-02-21T13:21:37;10.20;99.90
11609;DHT22;5860;52.018;8.536;2024-02-21T13:24:04;10.20;99.90
11609;DHT22;5860;52.018;8.536;2024-02-21T13:26:31;10.20;99.90
11609;DHT22;5860;52.018;8.536;2024-02-21T13:28:58;10.30;99.90
11609;DHT22;5860;52.018;8.536;2024-02-21T13:31:26;10.30;1.00
11609;DHT22;5860;52.018;8.536;2024-02-21T13:33:53;10.20;1.00
11609;DHT22;5860;52.018;8.536;2024-02-21T13:36:20;10.40;1.00
11609;DHT22;5860;52.018;8.536;2024-02-21T13:38:47;10.40;99.90
11609;DHT22;5860;52.018;8.536;2024-02-21T13:41:14;10.30;1.00
11609;DHT22;5860;52.018;8.536;2024-02-21T13:43:41;10.10;99.90
11609;DHT22;5860;52.018;8.536;2024-02-21T13:46:08;10.10;1.00
11609;DHT22;5860;52.018;8.536;2024-02-21T13:48:37;10.10;1.00
11609;DHT22;5860;52.018;8.536;2024-02-21T13:51:05;10.20;1.00
11609;DHT22;5860;52.018;8.536;2024-02-21T13:53:33;10.10;99.90
11609;DHT22;5860;52.018;8.536;2024-02-21T13:56:01;9.90;1.00
11609;DHT22;5860;52.018;8.536;2024-02-21T13:58:28;9.90;1.00
11609;DHT22;5860;52.018;8.536;2024-02-21T14:00:55;10.00;1.00
11609;DHT22;5860;52.018;8.536;2024-02-21T14:03:23;9.90;1.00
11609;DHT22;5860;52.018;8.536;2024-02-21T14:05:52;9.90;1.00
11609;DHT22;5860;52.018;8.536;2024-02-21T14:08:19;10.00;1.00
11609;DHT22;5860;52.018;8.536;2024-02-21T14:10:46;10.00;99.90
11609;DHT22;5860;52.018;8.536;2024-02-21T14:13:14;10.00;99.90
11609;DHT22;5860;52.018;8.536;2024-02-21T14:15:44;10.00;99.90
11609;DHT22;5860;52.018;8.536;2024-02-21T14:18:14;10.00;1.00
11609;DHT22;5860;52.018;8.536;2024-02-21T14:20:43;10.00;99.90
11609;DHT22;5860;52.018;8.536;2024-02-21T14:23:10;10.10;1.00
11609;DHT22;5860;52.018;8.536;2024-02-21T14:25:37;10.00;1.00
11609;DHT22;5860;52.018;8.536;2024-02-21T14:28:07;10.10;1.00
11609;DHT22;5860;52.018;8.536;2024-02-21T14:30:35;10.20;99.90
11609;DHT22;5860;52.018;8.536;2024-02-21T14:33:03;10.10;99.90
11609;DHT22;5860;52.018;8.536;2024-02-21T14:35:30;10.10;99.90
11609;DHT22;5860;52.018;8.536;2024-02-21T14:37:57;10.20;1.00
11609;DHT22;5860;52.018;8.536;2024-02-21T14:40:24;10.20;1.00
11609;DHT22;5860;52.018;8.536;2024-02-21T14:42:51;10.30;1.00
11609;DHT22;5860;52.018;8.536;2024-02-21T14:45:19;10.30;1.00
11609;DHT22;5860;52.018;8.536;2024-02-21T14:47:46;10.30;1.00
11609;DHT22;5860;52.018;8.536;2024-02-21T14:50:13;10.30;1.00
11609;DHT22;5860;52.018;8.536;2024-02-21T14:52:40;10.30;99.90
11609;DHT22;5860;52.018;8.536;2024-02-21T14:55:08;10.30;99.90
11609;DHT22;5860;52.018;8.536;2024-02-21T14:57:37;10.20;99.90
11609;DHT22;5860;52.018;8.536;2024-02-21T15:00:07;10.30;99.90
11609;DHT22;5860;52.018;8.536;2024-02-21T15:02:35;10.20;99.90
11609;DHT22;5860;52.018;8.536;2024-02-21T15:05:02;10.30;99.90
11609;DHT22;5860;52.018;8.536;2024-02-21T15:07:33;10.20;99.90
11609;DHT22;5860;52.018;8.536;2024-02-21T15:10:00;10.10;99.90
11609;DHT22;5860;52.018;8.536;2024-02-21T15:12:27;10.10;99.90
11609;DHT22;5860;52.018;8.536;2024-02-21T15:14:54;10.10;99.90
11609;DHT22;5860;52.018;8.536;2024-02-21T15:17:22;10.10;99.90
11609;DHT22;5860;52.018;8.536;2024-02-21T15:19:49;10.10;99.90
11609;DHT22;5860;52.018;8.536;2024-02-21T15:22:17;10.10;99.90
11609;DHT22;5860;52.018;8.536;2024-02-21T15:24:46;10.20;99.90
11609;DHT22;5860;52.018;8.536;2024-02-21T15:27:15;10.10;99.90
11609;DHT22;5860;52.018;8.536;2024-02-21T15:29:43;10.10;99.90
11609;DHT22;5860;52.018;8.536;2024-02-21T15:32:11;10.10;99.90
11609;DHT22;5860;52.018;8.536;2024-02-21T15:34:39;10.00;99.90
11609;DHT22;5860;52.018;8.536;2024-02-21T15:37:06;10.00;99.90
11609;DHT22;5860;52.018;8.536;2024-02-21T15:39:34;10.10;99.90
11609;DHT22;5860;52.018;8.536;2024-02-21T15:42:02;10.10;99.90
11609;DHT22;5860;52.018;8.536;2024-02-21T15:44:29;10.10;99.90
11609;DHT22;5860;52.018;8.536;2024-02-21T15:46:57;10.00;99.90
11609;DHT22;5860;52.018;8.536;2024-02-21T15:49:24;10.10;99.90
11609;DHT22;5860;52.018;8.536;2024-02-21T15:51:51;10.00;99.90
11609;DHT22;5860;52.018;8.536;2024-02-21T15:54:19;10.00;99.90
11609;DHT22;5860;52.018;8.536;2024-02-21T15:56:51;9.90;99.90
11609;DHT22;5860;52.018;8.536;2024-02-21T15:59:18;10.00;99.90
11609;DHT22;5860;52.018;8.536;2024-02-21T16:01:45;10.00;1.00
11609;DHT22;5860;52.018;8.536;2024-02-21T16:04:12;9.90;1.00
11609;DHT22;5860;52.018;8.536;2024-02-21T16:06:41;9.90;1.00
11609;DHT22;5860;52.018;8.536;2024-02-21T16:09:10;9.90;1.00